Time;durP1;ratioP1;P1;durP2;ratioP2;P2;SDS_P1;SDS_P2;PMS_P1;PMS_P2;Temp;Humidity;BMP_temperature;BMP_pressure;BME280_temperature;BME280_humidity;BME280_pressure;Samples;Min_cycle;Max_cycle;Signal;HPM_P1;HPM_P2
2023/03/15 00:01:15;;;;;;;5.57;1.00;;;3.30;99.90;;;;;;4998256;28;20446;-63
2023/03/15 00:03:42;;;;;;;3.13;1.33;;;3.30;99.90;;;;;;4997850;28;20455;-62
2023/03/15 00:06:11;;;;;;;5.23;1.37;;;3.30;99.90;;;;;;4997996;28;20423;-61
2023/03/15 00:08:38;;;;;;;6.23;1.70;;;3.30;99.90;;;;;;4998126;28;20498;-61
2023/03/15 00:11:07;;;;;;;8.50;2.03;;;3.30;99.90;;;;;;4998133;28;20469;-61
2023/03/15 00:13:34;;;;;;;3.60;1.47;;;3.20;99.90;;;;;;4997653;28;20521;-57
2023/03/15 00:16:03;;;;;;;5.27;1.07;;;3.20;99.90;;;;;;4998179;28;20454;-58
2023/03/15 00:18:31;;;;;;;14.90;1.43;;;3.20;99.90;;;;;;4997736;28;20455;-60
2023/03/15 00:20:58;;;;;;;6.50;1.50;;;3.20;99.90;;;;;;4997500;28;20451;-60
2023/03/15 00:23:25;;;;;;;2.10;0.70;;;3.20;99.90;;;;;;4997507;28;20463;-61
2023/03/15 00:25:53;;;;;;;1.97;0.93;;;3.20;99.90;;;;;;4997770;28;20427;-61
2023/03/15 00:28:21;;;;;;;3.43;1.23;;;3.20;99.90;;;;;;4997673;28;20442;-61
2023/03/15 00:30:48;;;;;;;4.30;0.80;;;3.20;99.90;;;;;;4997648;28;20446;-60
2023/03/15 00:33:16;;;;;;;2.03;1.47;;;3.30;99.90;;;;;;4997242;28;20502;-59
2023/03/15 00:35:45;;;;;;;1.30;1.07;;;3.30;99.90;;;;;;4997007;28;20446;-59
2023/03/15 00:38:13;;;;;;;3.47;1.43;;;3.30;99.90;;;;;;4997471;28;20454;-61
2023/03/15 00:40:40;;;;;;;9.30;1.10;;;3.30;99.90;;;;;;4997152;28;20477;-61
2023/03/15 00:43:07;;;;;;;5.53;1.20;;;3.20;99.90;;;;;;4997436;28;20466;-60
2023/03/15 00:45:38;;;;;;;4.00;1.37;;;3.30;99.90;;;;;;4997217;28;20435;-59
2023/03/15 00:48:06;;;;;;;16.90;1.43;;;3.20;99.90;;;;;;4997416;28;20450;-63
2023/03/15 00:50:33;;;;;;;5.53;1.67;;;3.20;99.90;;;;;;4997279;28;20451;-60
2023/03/15 00:52:59;;;;;;;11.00;3.07;;;3.20;99.90;;;;;;4997549;28;20940;-61
2023/03/15 00:55:31;;;;;;;8.37;1.73;;;3.20;99.90;;;;;;4997973;28;20458;-62
2023/03/15 00:57:58;;;;;;;5.63;1.30;;;3.30;99.90;;;;;;4997754;28;20475;-61
2023/03/15 01:00:25;;;;;;;7.80;1.20;;;3.30;99.90;;;;;;4997880;28;20443;-59
2023/03/15 01:02:54;;;;;;;2.03;1.40;;;3.20;99.90;;;;;;5002889;28;20514;-61
2023/03/15 01:05:21;;;;;;;3.80;0.90;;;3.20;99.90;;;;;;5004111;28;20438;-60
2023/03/15 01:07:49;;;;;;;1.77;0.93;;;3.20;99.90;;;;;;5003925;28;20527;-57
2023/03/15 01:10:16;;;;;;;3.80;1.50;;;3.20;99.90;;;;;;5004479;28;20458;-57
2023/03/15 01:12:43;;;;;;;1.73;0.80;;;3.20;99.90;;;;;;5003550;28;20493;-61
2023/03/15 01:15:13;;;;;;;3.40;1.30;;;3.20;99.90;;;;;;5003802;28;20455;-60
2023/03/15 01:17:40;;;;;;;1.83;1.03;;;3.20;99.90;;;;;;5003957;28;20434;-60
2023/03/15 01:20:10;;;;;;;1.30;0.90;;;3.10;99.90;;;;;;5003724;28;20454;-61
2023/03/15 01:22:37;;;;;;;1.70;1.10;;;3.10;99.90;;;;;;5004083;28;20434;-60
2023/03/15 01:25:05;;;;;;;1.50;0.90;;;3.10;99.90;;;;;;5003408;28;20486;-61
2023/03/15 01:27:31;;;;;;;4.67;1.70;;;3.10;99.90;;;;;;5004370;28;20411;-61
2023/03/15 01:29:58;;;;;;;4.60;1.30;;;3.10;99.90;;;;;;5002918;28;20446;-63
2023/03/15 01:32:26;;;;;;;1.20;1.00;;;3.10;99.90;;;;;;5003340;28;20502;-58
2023/03/15 01:34:53;;;;;;;1.77;0.80;;;3.10;99.90;;;;;;5003244;28;20430;-56
2023/03/15 01:37:23;;;;;;;3.77;1.20;;;3.10;99.90;;;;;;5003464;28;20467;-59
2023/03/15 01:39:50;;;;;;;1.30;0.80;;;3.10;99.90;;;;;;5003681;28;20433;-59
2023/03/15 01:42:17;;;;;;;4.30;1.57;;;3.10;99.90;;;;;;5003869;28;20478;-60
2023/03/15 01:44:54;;;;;;;2.20;1.27;;;3.10;99.90;;;;;;5003703;28;20443;-60
2023/03/15 01:47:24;;;;;;;3.70;0.93;;;3.10;99.90;;;;;;5003459;28;20446;-59
2023/03/15 01:49:57;;;;;;;8.50;1.70;;;3.10;99.90;;;;;;5003600;28;20563;-60
2023/03/15 01:52:32;;;;;;;5.80;1.60;;;3.10;99.90;;;;;;5003581;28;20469;-59
2023/03/15 01:55:04;;;;;;;1.83;0.70;;;3.10;99.90;;;;;;5003496;28;20450;-62
2023/03/15 01:57:44;;;;;;;1.53;0.90;;;3.00;99.90;;;;;;5003526;28;20458;-59
2023/03/15 02:00:20;;;;;;;6.50;2.20;;;3.00;99.90;;;;;;5004136;28;20465;-56
2023/03/15 02:02:50;;;;;;;1.00;0.73;;;3.00;99.90;;;;;;5004440;28;20459;-61
2023/03/15 02:05:21;;;;;;;2.37;1.00;;;3.00;99.90;;;;;;5003605;28;20475;-59
2023/03/15 02:07:53;;;;;;;2.60;1.00;;;3.00;99.90;;;;;;5003343;28;20434;-60
2023/03/15 02:10:27;;;;;;;2.13;0.83;;;2.90;99.90;;;;;;5003826;28;20498;-54
2023/03/15 02:12:56;;;;;;;2.60;1.20;;;2.80;99.90;;;;;;5001552;28;20467;-58
2023/03/15 02:15:23;;;;;;;1.77;0.83;;;2.90;99.90;;;;;;5000278;28;20431;-59
2023/03/15 02:17:50;;;;;;;4.53;1.43;;;2.80;99.90;;;;;;5000445;28;20455;-59
2023/03/15 02:20:29;;;;;;;2.97;1.13;;;2.90;99.90;;;;;;4999971;28;20443;-61
2023/03/15 02:23:00;;;;;;;8.50;1.50;;;2.90;99.90;;;;;;5000201;28;20490;-61
2023/03/15 02:25:39;;;;;;;5.87;1.37;;;2.80;99.90;;;;;;5000416;28;20514;-60
2023/03/15 02:28:11;;;;;;;8.03;1.30;;;2.80;99.90;;;;;;4999541;28;20482;-59
2023/03/15 02:30:41;;;;;;;21.77;1.60;;;2.80;99.90;;;;;;4999504;28;20435;-58
2023/03/15 02:33:14;;;;;;;2.43;1.33;;;2.80;99.90;;;;;;4999745;28;20487;-60
2023/03/15 02:35:43;;;;;;;2.93;1.20;;;2.80;99.90;;;;;;4999579;28;20442;-56
2023/03/15 02:38:10;;;;;;;2.73;1.13;;;2.70;99.90;;;;;;5000178;28;20471;-57
2023/03/15 02:40:39;;;;;;;6.63;1.60;;;2.70;99.90;;;;;;4999657;28;20458;-60
2023/03/15 02:43:12;;;;;;;5.90;1.53;;;2.80;99.90;;;;;;5000216;28;20435;-60
2023/03/15 02:45:40;;;;;;;4.67;1.47;;;2.80;99.90;;;;;;4999830;28;20470;-58
2023/03/15 02:48:09;;;;;;;5.30;1.20;;;2.80;99.90;;;;;;4999454;28;20455;-58
2023/03/15 02:50:36;;;;;;;5.17;1.60;;;2.80;99.90;;;;;;4999484;28;20968;-60
2023/03/15 02:53:02;;;;;;;1.63;1.10;;;2.80;99.90;;;;;;4999576;28;20481;-59
2023/03/15 02:55:31;;;;;;;3.97;1.30;;;2.80;99.90;;;;;;4999912;28;20892;-59
2023/03/15 02:57:58;;;;;;;4.23;1.00;;;2.80;99.90;;;;;;4999660;28;20455;-59
2023/03/15 03:00:27;;;;;;;4.57;1.70;;;2.80;99.90;;;;;;4999370;28;20471;-60
2023/03/15 03:02:55;;;;;;;1.20;0.87;;;2.80;99.90;;;;;;4999702;28;20450;-60
2023/03/15 03:05:22;;;;;;;1.13;0.70;;;2.80;99.90;;;;;;4999258;28;20478;-59
2023/03/15 03:07:49;;;;;;;2.00;1.43;;;2.80;99.90;;;;;;4998962;28;20470;-60
2023/03/15 03:10:18;;;;;;;3.10;1.23;;;2.80;99.90;;;;;;4999336;28;20435;-60
2023/03/15 03:12:45;;;;;;;1.30;1.00;;;2.80;99.90;;;;;;4997066;28;20487;-60
2023/03/15 03:15:15;;;;;;;1.63;0.87;;;2.70;99.90;;;;;;4981161;28;20538;-60
2023/03/15 03:17:43;;;;;;;7.73;2.13;;;2.80;99.90;;;;;;4990720;28;20443;-59
2023/03/15 03:20:12;;;;;;;1.37;1.17;;;2.80;99.90;;;;;;4999583;28;20483;-59
2023/03/15 03:22:44;;;;;;;1.60;0.83;;;2.80;99.90;;;;;;4999747;28;20465;-53
2023/03/15 03:25:11;;;;;;;2.07;1.17;;;2.80;99.90;;;;;;5001099;28;20486;-59
2023/03/15 03:27:38;;;;;;;6.90;1.00;;;2.80;99.90;;;;;;5001362;28;20410;-52
2023/03/15 03:30:07;;;;;;;6.33;1.23;;;2.80;99.90;;;;;;5001098;28;20461;-58
2023/03/15 03:32:34;;;;;;;8.63;1.47;;;2.90;99.90;;;;;;4999662;28;20492;-60
2023/03/15 03:35:06;;;;;;;5.83;0.93;;;2.90;99.90;;;;;;4998630;28;20477;-61
2023/03/15 03:37:34;;;;;;;11.20;1.60;;;2.90;99.90;;;;;;4998656;28;20435;-59
2023/03/15 03:40:04;;;;;;;2.27;1.27;;;2.90;99.90;;;;;;4998604;28;20426;-57
2023/03/15 03:42:32;;;;;;;1.30;0.87;;;3.00;99.90;;;;;;4999412;28;20459;-59
2023/03/15 03:45:00;;;;;;;2.33;1.10;;;3.00;99.90;;;;;;4998938;28;20446;-60
2023/03/15 03:47:27;;;;;;;2.97;1.30;;;3.00;99.90;;;;;;4997698;28;20461;-56
2023/03/15 03:49:54;;;;;;;5.00;1.63;;;3.00;99.90;;;;;;4998371;28;20462;-59
2023/03/15 03:52:22;;;;;;;7.13;1.13;;;3.00;99.90;;;;;;4997964;28;20471;-58
2023/03/15 03:54:49;;;;;;;2.77;1.10;;;3.10;99.90;;;;;;4998239;28;20459;-60
2023/03/15 03:57:16;;;;;;;3.73;1.70;;;3.10;99.90;;;;;;4978615;28;20534;-60
2023/03/15 03:59:43;;;;;;;2.80;1.10;;;3.10;99.90;;;;;;4983168;28;20462;-59
2023/03/15 04:02:10;;;;;;;6.30;1.37;;;3.00;99.90;;;;;;4976944;28;20530;-61
2023/03/15 04:04:40;;;;;;;6.00;1.57;;;2.90;99.90;;;;;;4991158;28;20474;-61
2023/03/15 04:07:07;;;;;;;1.30;1.00;;;2.90;99.90;;;;;;4995171;28;20442;-57
2023/03/15 04:09:36;;;;;;;1.40;0.90;;;2.80;99.90;;;;;;4998974;28;20443;-57
2023/03/15 04:12:04;;;;;;;2.80;1.10;;;2.70;99.90;;;;;;4998743;28;20427;-59
2023/03/15 04:14:30;;;;;;;7.93;1.73;;;2.70;99.90;;;;;;4997199;28;20956;-56
2023/03/15 04:16:57;;;;;;;2.90;1.27;;;2.60;99.90;;;;;;4998405;28;20466;-60
2023/03/15 04:19:24;;;;;;;4.87;1.57;;;2.60;99.90;;;;;;4998026;28;20447;-60
2023/03/15 04:21:51;;;;;;;2.97;1.20;;;2.50;99.90;;;;;;4998026;28;20471;-58
2023/03/15 04:24:18;;;;;;;2.53;1.33;;;2.50;99.90;;;;;;4998108;28;20443;-58
2023/03/15 04:26:46;;;;;;;3.93;1.67;;;2.40;99.90;;;;;;4998389;28;20507;-60
2023/03/15 04:29:14;;;;;;;5.10;2.20;;;2.40;99.90;;;;;;4998674;28;20466;-59
2023/03/15 04:31:42;;;;;;;9.47;1.50;;;2.40;99.90;;;;;;4998915;28;20515;-59
2023/03/15 04:34:09;;;;;;;12.20;1.70;;;2.40;99.90;;;;;;4997968;28;20567;-59
2023/03/15 04:36:36;;;;;;;3.30;1.20;;;2.30;99.90;;;;;;4997329;28;20516;-60
2023/03/15 04:39:04;;;;;;;1.50;1.20;;;2.30;99.90;;;;;;4993686;28;20435;-60
2023/03/15 04:41:34;;;;;;;2.17;1.60;;;2.20;99.90;;;;;;4985722;28;20485;-59
2023/03/15 04:44:03;;;;;;;6.87;1.63;;;2.20;99.90;;;;;;4995285;28;20463;-59
2023/03/15 04:46:31;;;;;;;3.30;1.07;;;2.20;99.90;;;;;;4996138;28;20423;-55
2023/03/15 04:48:57;;;;;;;3.33;1.17;;;2.20;99.90;;;;;;4997640;28;20558;-58
2023/03/15 04:51:24;;;;;;;4.20;1.17;;;2.10;99.90;;;;;;4997551;28;20427;-61
2023/03/15 04:53:51;;;;;;;2.47;1.37;;;2.10;99.90;;;;;;4997957;28;20482;-59
2023/03/15 04:56:18;;;;;;;3.00;1.23;;;2.00;99.90;;;;;;4998092;28;20446;-58
2023/03/15 04:58:45;;;;;;;4.57;1.80;;;2.00;99.90;;;;;;4997676;28;20471;-58
2023/03/15 05:01:13;;;;;;;7.20;2.10;;;2.00;99.90;;;;;;4997837;28;20486;-55
2023/03/15 05:03:40;;;;;;;10.67;1.60;;;2.00;99.90;;;;;;4997268;28;20458;-60
2023/03/15 05:06:07;;;;;;;11.93;2.23;;;2.00;99.90;;;;;;4997418;28;20467;-60
2023/03/15 05:08:35;;;;;;;4.80;1.90;;;2.00;99.90;;;;;;4997859;28;20435;-60
2023/03/15 05:11:02;;;;;;;7.13;2.30;;;2.00;99.90;;;;;;4997828;28;20447;-60
2023/03/15 05:13:29;;;;;;;3.17;2.10;;;2.00;99.90;;;;;;4998326;28;20673;-60
2023/03/15 05:15:57;;;;;;;5.03;1.33;;;1.90;99.90;;;;;;4997776;28;20462;-59
2023/03/15 05:18:28;;;;;;;7.60;1.37;;;1.90;99.90;;;;;;4998117;28;20443;-61
2023/03/15 05:20:55;;;;;;;1.87;1.00;;;1.90;99.90;;;;;;4998029;28;20432;-60
2023/03/15 05:23:25;;;;;;;11.67;2.37;;;1.90;99.90;;;;;;4997651;28;20433;-57
2023/03/15 05:25:53;;;;;;;3.47;1.13;;;1.90;99.90;;;;;;4997357;28;20502;-62
2023/03/15 05:28:20;;;;;;;2.97;1.30;;;1.90;99.90;;;;;;4997392;28;20459;-61
2023/03/15 05:30:51;;;;;;;6.83;1.57;;;2.00;99.90;;;;;;4997865;28;20459;-60
2023/03/15 05:33:19;;;;;;;2.30;1.43;;;2.00;99.90;;;;;;4997502;28;20506;-59
2023/03/15 05:35:48;;;;;;;2.47;1.50;;;2.00;99.90;;;;;;4998080;28;20459;-59
2023/03/15 05:38:15;;;;;;;2.23;1.30;;;2.10;99.90;;;;;;4997873;28;20423;-57
2023/03/15 05:40:43;;;;;;;6.33;1.20;;;2.10;99.90;;;;;;4997544;28;20446;-59
2023/03/15 05:43:09;;;;;;;3.83;2.10;;;2.10;99.90;;;;;;4997453;28;20474;-58
2023/03/15 05:45:43;;;;;;;4.73;2.80;;;2.20;99.90;;;;;;4997448;28;20495;-60
2023/03/15 05:48:10;;;;;;;5.60;2.03;;;2.20;99.90;;;;;;4998891;28;20490;-60
2023/03/15 05:50:37;;;;;;;3.40;1.20;;;2.40;99.90;;;;;;5000627;28;20956;-59
2023/03/15 05:53:05;;;;;;;8.20;2.07;;;2.40;99.90;;;;;;5000508;28;20430;-60
2023/03/15 05:55:32;;;;;;;3.10;1.50;;;2.40;99.90;;;;;;5000744;28;20455;-56
2023/03/15 05:57:58;;;;;;;14.03;2.70;;;2.50;99.90;;;;;;5000650;28;20431;-60
2023/03/15 06:00:25;;;;;;;3.20;1.27;;;2.50;99.90;;;;;;5000796;28;20455;-57
2023/03/15 06:02:52;;;;;;;4.13;1.37;;;2.50;99.90;;;;;;5000620;28;20455;-56
2023/03/15 06:05:19;;;;;;;3.67;2.20;;;2.50;99.90;;;;;;5001022;28;20431;-60
2023/03/15 06:07:47;;;;;;;4.30;1.47;;;2.50;99.90;;;;;;4999901;28;20475;-57
2023/03/15 06:10:16;;;;;;;17.53;1.87;;;2.50;99.90;;;;;;5000367;28;20449;-59
2023/03/15 06:12:43;;;;;;;2.13;1.27;;;2.60;99.90;;;;;;5000256;28;20466;-60
2023/03/15 06:15:11;;;;;;;12.83;1.93;;;2.60;99.90;;;;;;5000393;28;20502;-60
2023/03/15 06:17:38;;;;;;;3.60;1.30;;;2.60;99.90;;;;;;5000883;28;20450;-55
2023/03/15 06:20:05;;;;;;;6.73;1.40;;;2.80;99.90;;;;;;4999955;28;20447;-57
2023/03/15 06:22:32;;;;;;;1.67;1.03;;;2.80;99.90;;;;;;4999545;28;20443;-60
2023/03/15 06:24:59;;;;;;;7.97;1.97;;;2.80;99.90;;;;;;4999225;28;20467;-58
2023/03/15 06:27:27;;;;;;;2.07;1.47;;;2.80;99.90;;;;;;4999910;28;20467;-56
2023/03/15 06:29:54;;;;;;;1.40;1.17;;;2.90;99.90;;;;;;4999758;28;20478;-56
2023/03/15 06:32:21;;;;;;;4.00;1.57;;;2.90;99.90;;;;;;4999712;28;20434;-58
2023/03/15 06:34:51;;;;;;;5.37;1.77;;;3.00;99.90;;;;;;5000285;28;20542;-58
2023/03/15 06:37:18;;;;;;;10.63;2.10;;;3.00;99.90;;;;;;5000376;28;20435;-56
2023/03/15 06:39:47;;;;;;;5.13;1.60;;;2.90;99.90;;;;;;5000492;28;20458;-58
2023/03/15 06:42:16;;;;;;;7.23;1.50;;;2.90;99.90;;;;;;5000158;28;20442;-60
2023/03/15 06:44:44;;;;;;;2.40;1.23;;;2.90;99.90;;;;;;4999610;28;20447;-60
2023/03/15 06:47:11;;;;;;;3.10;2.03;;;2.90;99.90;;;;;;4999669;28;20451;-61
2023/03/15 06:49:39;;;;;;;6.10;3.47;;;2.90;99.90;;;;;;4999870;28;20510;-57
2023/03/15 06:52:07;;;;;;;3.77;1.67;;;3.00;99.90;;;;;;5000414;28;20477;-60
2023/03/15 06:54:34;;;;;;;5.93;1.27;;;3.00;99.90;;;;;;4999072;28;20482;-60
2023/03/15 06:57:01;;;;;;;7.50;2.37;;;3.10;99.90;;;;;;4999242;28;20459;-61
2023/03/15 06:59:27;;;;;;;2.37;1.70;;;3.10;99.90;;;;;;4997754;28;20439;-61
2023/03/15 07:01:56;;;;;;;6.30;1.70;;;3.20;99.90;;;;;;4998943;28;20447;-61
2023/03/15 07:04:22;;;;;;;4.10;2.03;;;3.20;99.90;;;;;;4999735;28;20469;-60
2023/03/15 07:06:52;;;;;;;5.50;1.67;;;3.30;99.90;;;;;;4998426;28;20509;-61
2023/03/15 07:09:20;;;;;;;9.87;2.80;;;3.40;99.90;;;;;;4998390;28;20503;-61
2023/03/15 07:11:47;;;;;;;3.40;1.53;;;3.50;99.90;;;;;;4998545;28;20482;-64
2023/03/15 07:14:16;;;;;;;7.73;2.50;;;3.60;99.90;;;;;;4997870;28;20474;-59
2023/03/15 07:16:43;;;;;;;10.93;1.70;;;3.70;99.90;;;;;;4998132;28;20411;-64
2023/03/15 07:19:11;;;;;;;6.70;1.90;;;3.80;99.90;;;;;;4997966;28;20432;-64
2023/03/15 07:21:38;;;;;;;2.50;1.13;;;3.90;99.90;;;;;;4998010;28;20497;-65
2023/03/15 07:24:05;;;;;;;1.60;1.10;;;4.00;99.90;;;;;;4997490;28;20447;-65
2023/03/15 07:26:32;;;;;;;3.37;1.63;;;4.10;99.90;;;;;;4997974;28;20498;-60
2023/03/15 07:29:04;;;;;;;3.50;1.27;;;4.00;99.90;;;;;;4998012;28;20449;-62
2023/03/15 07:31:31;;;;;;;6.43;1.60;;;4.00;99.90;;;;;;4998325;28;20458;-62
2023/03/15 07:34:00;;;;;;;6.50;1.30;;;4.00;99.90;;;;;;4997289;28;20846;-61
2023/03/15 07:36:31;;;;;;;14.60;1.90;;;4.00;99.90;;;;;;4997785;28;20439;-65
2023/03/15 07:38:58;;;;;;;5.43;1.40;;;4.00;99.90;;;;;;4996900;28;20435;-62
2023/03/15 07:41:24;;;;;;;7.23;2.10;;;4.00;99.90;;;;;;4997558;28;20439;-63
2023/03/15 07:43:51;;;;;;;9.03;1.60;;;4.10;99.90;;;;;;4996756;28;20455;-63
2023/03/15 07:46:29;;;;;;;2.50;2.30;;;4.10;99.90;;;;;;4998660;28;20442;-60
2023/03/15 07:48:56;;;;;;;8.10;1.80;;;4.10;99.90;;;;;;4997574;28;20542;-58
2023/03/15 07:51:25;;;;;;;4.13;1.70;;;4.20;99.90;;;;;;4997143;28;20443;-64
2023/03/15 07:53:54;;;;;;;5.87;1.70;;;4.20;99.90;;;;;;4997597;28;20419;-64
2023/03/15 07:56:21;;;;;;;3.83;1.80;;;4.20;99.90;;;;;;4997118;28;20420;-57
2023/03/15 07:58:48;;;;;;;5.63;1.90;;;4.30;99.90;;;;;;4998521;28;20451;-62
2023/03/15 08:01:15;;;;;;;7.13;1.60;;;4.40;99.90;;;;;;4998357;28;20447;-63
2023/03/15 08:03:43;;;;;;;5.97;1.80;;;4.40;99.90;;;;;;4998368;28;20488;-59
2023/03/15 08:06:16;;;;;;;6.90;1.60;;;4.50;99.90;;;;;;4997900;28;20494;-62
2023/03/15 08:08:43;;;;;;;5.40;1.97;;;4.60;99.90;;;;;;4998057;28;20442;-58
2023/03/15 08:11:11;;;;;;;3.73;2.10;;;4.70;99.90;;;;;;4997553;28;20455;-58
2023/03/15 08:13:38;;;;;;;2.20;1.40;;;4.60;99.90;;;;;;4998007;28;20474;-63
2023/03/15 08:16:05;;;;;;;3.07;2.03;;;4.60;99.90;;;;;;4998517;28;20490;-61
2023/03/15 08:18:32;;;;;;;5.97;2.17;;;4.50;99.90;;;;;;4999545;28;20451;-60
2023/03/15 08:20:59;;;;;;;7.67;1.87;;;4.50;99.90;;;;;;4998705;28;20459;-66
2023/03/15 08:23:27;;;;;;;5.03;1.87;;;4.50;99.90;;;;;;4998369;28;20484;-63
2023/03/15 08:25:53;;;;;;;4.90;2.43;;;4.50;99.90;;;;;;4999137;28;20437;-64
2023/03/15 08:28:22;;;;;;;3.37;1.50;;;4.50;99.90;;;;;;4998329;28;20494;-62
2023/03/15 08:30:48;;;;;;;4.57;1.40;;;4.60;99.90;;;;;;4997612;28;20435;-58
2023/03/15 08:33:15;;;;;;;3.23;1.70;;;4.50;99.90;;;;;;4996648;28;20447;-62
2023/03/15 08:35:42;;;;;;;2.53;1.50;;;4.50;99.90;;;;;;4997052;28;20506;-63
2023/03/15 08:38:11;;;;;;;3.50;1.20;;;4.60;99.90;;;;;;4996940;28;20446;-63
2023/03/15 08:40:39;;;;;;;4.40;1.87;;;4.60;99.90;;;;;;4997066;28;20478;-64
2023/03/15 08:43:06;;;;;;;7.20;1.50;;;4.60;99.90;;;;;;4997184;28;20459;-60
2023/03/15 08:45:36;;;;;;;6.93;2.67;;;4.60;99.90;;;;;;4997141;28;20470;-63
2023/03/15 08:48:03;;;;;;;15.47;3.30;;;4.50;99.90;;;;;;4997354;28;20485;-64
2023/03/15 08:50:31;;;;;;;15.43;2.20;;;4.50;99.90;;;;;;4996849;28;20467;-62
2023/03/15 08:52:58;;;;;;;7.30;1.70;;;4.50;99.90;;;;;;4996771;28;20515;-66
2023/03/15 08:55:25;;;;;;;3.00;1.37;;;4.50;99.90;;;;;;4997355;28;20479;-58
2023/03/15 08:57:52;;;;;;;4.33;1.67;;;4.70;99.90;;;;;;4997363;28;20461;-62
2023/03/15 09:00:21;;;;;;;4.30;1.57;;;4.80;99.90;;;;;;4997391;28;20486;-62
2023/03/15 09:02:50;;;;;;;6.50;1.53;;;5.00;99.90;;;;;;4997130;28;20493;-63
2023/03/15 09:05:18;;;;;;;5.30;2.63;;;5.00;99.90;;;;;;4997662;28;20483;-58
2023/03/15 09:07:45;;;;;;;5.03;2.20;;;4.90;99.90;;;;;;4997045;28;20474;-62
2023/03/15 09:10:14;;;;;;;3.67;2.40;;;4.80;99.90;;;;;;4996857;28;20446;-65
2023/03/15 09:12:41;;;;;;;1.67;1.20;;;4.70;99.90;;;;;;4996556;28;20463;-58
2023/03/15 09:15:10;;;;;;;13.93;2.83;;;4.80;99.90;;;;;;4996953;28;20455;-59
2023/03/15 09:17:36;;;;;;;2.00;1.60;;;4.90;99.90;;;;;;4997038;28;20505;-56
2023/03/15 09:20:13;;;;;;;4.83;2.70;;;4.80;99.90;;;;;;4996673;28;20443;-62
2023/03/15 09:22:40;;;;;;;4.87;2.10;;;4.80;99.90;;;;;;4997686;28;20431;-64
2023/03/15 09:25:09;;;;;;;1.87;1.57;;;5.20;99.90;;;;;;5001293;28;20453;-61
2023/03/15 09:27:36;;;;;;;5.50;1.90;;;5.40;99.90;;;;;;5001277;28;20503;-64
2023/03/15 09:30:05;;;;;;;11.70;3.70;;;5.50;99.90;;;;;;5000832;28;20458;-56
2023/03/15 09:32:34;;;;;;;6.23;2.80;;;5.70;99.90;;;;;;5000313;28;20443;-65
2023/03/15 09:35:02;;;;;;;3.67;2.17;;;5.80;99.90;;;;;;5000250;28;20546;-63
2023/03/15 09:37:32;;;;;;;6.70;2.50;;;5.90;99.90;;;;;;5001026;28;20491;-61
2023/03/15 09:39:59;;;;;;;2.60;2.20;;;5.80;99.90;;;;;;5001138;28;20423;-59
2023/03/15 09:42:36;;;;;;;4.73;2.17;;;5.70;99.90;;;;;;5001850;28;20447;-56
2023/03/15 09:45:13;;;;;;;3.27;2.30;;;5.60;99.90;;;;;;5001621;28;20419;-62
2023/03/15 09:48:04;;;;;;;2.73;2.10;;;5.50;99.90;;;;;;5001183;28;20493;-63
2023/03/15 09:50:36;;;;;;;4.20;2.20;;;5.40;99.90;;;;;;5000596;28;20462;-64
2023/03/15 09:53:09;;;;;;;3.03;1.90;;;5.20;99.90;;;;;;5000978;28;20473;-54
2023/03/15 09:55:36;;;;;;;11.17;2.37;;;5.10;99.90;;;;;;5000650;28;20471;-63
2023/03/15 09:58:05;;;;;;;2.50;1.57;;;5.00;99.90;;;;;;5000828;28;20471;-61
2023/03/15 10:00:38;;;;;;;5.07;1.30;;;5.00;99.90;;;;;;5001044;28;20462;-60
2023/03/15 10:03:08;;;;;;;3.30;1.83;;;5.00;99.90;;;;;;5000854;28;20423;-61
2023/03/15 10:05:44;;;;;;;2.63;1.50;;;5.00;99.90;;;;;;5000816;28;20463;-61
2023/03/15 10:08:16;;;;;;;2.40;1.43;;;5.00;99.90;;;;;;5000833;28;20445;-59
2023/03/15 10:10:51;;;;;;;5.00;2.10;;;5.10;99.90;;;;;;5000800;28;20431;-62
2023/03/15 10:13:41;;;;;;;3.57;1.63;;;5.10;99.90;;;;;;5001420;28;20431;-58
2023/03/15 10:16:20;;;;;;;1.83;1.37;;;5.60;99.90;;;;;;5001121;28;20541;-56
2023/03/15 10:19:05;;;;;;;8.83;2.27;;;6.20;99.90;;;;;;5001260;28;20435;-59
2023/03/15 10:21:40;;;;;;;2.60;1.47;;;6.50;99.90;;;;;;5000913;28;20534;-59
2023/03/15 10:24:18;;;;;;;4.17;1.50;;;6.80;99.90;;;;;;5001276;28;20399;-58
2023/03/15 10:26:45;;;;;;;3.40;2.30;;;6.40;99.90;;;;;;5000945;28;20469;-61
2023/03/15 10:29:15;;;;;;;5.40;1.53;;;6.20;99.90;;;;;;5001416;28;20435;-63
2023/03/15 10:31:45;;;;;;;2.97;2.13;;;6.20;99.90;;;;;;5000521;28;20474;-61
2023/03/15 10:34:15;;;;;;;2.17;1.23;;;6.20;99.90;;;;;;4999185;28;20419;-60
2023/03/15 10:36:48;;;;;;;4.57;2.23;;;6.40;99.90;;;;;;4999865;28;20494;-59
2023/03/15 10:39:18;;;;;;;2.90;2.23;;;7.20;99.90;;;;;;5000888;28;20427;-59
2023/03/15 10:41:49;;;;;;;9.00;2.10;;;7.30;99.90;;;;;;5000476;28;20450;-58
2023/03/15 10:44:18;;;;;;;2.40;1.73;;;7.60;99.90;;;;;;5000318;28;20519;-57
2023/03/15 10:47:01;;;;;;;2.33;1.40;;;8.60;99.90;;;;;;4999983;28;20442;-59
2023/03/15 10:49:35;;;;;;;1.90;1.50;;;9.90;99.90;;;;;;5000426;28;20442;-55
2023/03/15 10:52:02;;;;;;;5.03;1.90;;;10.90;99.90;;;;;;5000194;28;20422;-61
2023/03/15 10:54:32;;;;;;;3.57;2.13;;;11.60;99.90;;;;;;5000080;28;20474;-59
2023/03/15 10:57:12;;;;;;;1.80;1.40;;;12.00;99.90;;;;;;5000325;28;20430;-61
2023/03/15 10:59:55;;;;;;;3.13;2.03;;;12.10;99.70;;;;;;4999291;28;20877;-61
2023/03/15 11:02:23;;;;;;;4.87;1.43;;;11.20;98.00;;;;;;4999651;28;20454;-60
2023/03/15 11:05:02;;;;;;;6.20;1.67;;;11.10;99.10;;;;;;4999384;28;20475;-63
2023/03/15 11:07:29;;;;;;;3.73;1.43;;;9.80;98.70;;;;;;4999785;28;20441;-63
2023/03/15 11:10:03;;;;;;;7.83;1.23;;;9.10;99.90;;;;;;4999636;28;20462;-59
2023/03/15 11:12:32;;;;;;;4.03;1.60;;;8.70;99.90;;;;;;4999649;28;20434;-62
2023/03/15 11:15:03;;;;;;;3.80;1.67;;;8.40;99.90;;;;;;4999022;28;20514;-64
2023/03/15 11:17:33;;;;;;;5.07;1.23;;;7.90;99.90;;;;;;4999448;28;20411;-63
2023/03/15 11:20:17;;;;;;;3.43;1.47;;;7.60;99.90;;;;;;4998563;28;20525;-61
2023/03/15 11:22:44;;;;;;;4.40;1.27;;;7.70;99.90;;;;;;4999399;28;20439;-58
2023/03/15 11:25:17;;;;;;;3.97;1.90;;;7.80;99.90;;;;;;4998336;28;20502;-61
2023/03/15 11:27:50;;;;;;;4.10;1.40;;;7.70;99.90;;;;;;4998375;28;20442;-61
2023/03/15 11:30:31;;;;;;;3.93;1.60;;;7.60;99.90;;;;;;4999062;28;20447;-62
2023/03/15 11:33:04;;;;;;;1.57;1.43;;;7.70;99.90;;;;;;4998784;28;20423;-59
2023/03/15 11:35:39;;;;;;;5.27;2.83;;;7.60;99.90;;;;;;4998403;28;20495;-65
2023/03/15 11:38:13;;;;;;;3.93;1.80;;;7.40;99.90;;;;;;4998915;28;20454;-62
2023/03/15 11:40:44;;;;;;;5.20;1.53;;;7.30;99.90;;;;;;4998681;28;20412;-65
2023/03/15 11:43:18;;;;;;;10.53;1.63;;;7.30;99.90;;;;;;4998425;28;20431;-59
2023/03/15 11:45:51;;;;;;;1.90;1.23;;;7.30;99.90;;;;;;4998557;28;20427;-63
2023/03/15 11:48:22;;;;;;;5.20;1.43;;;7.40;99.90;;;;;;4998425;28;20459;-61
2023/03/15 11:50:52;;;;;;;1.50;1.17;;;7.50;99.90;;;;;;4998123;28;20431;-64
2023/03/15 11:53:20;;;;;;;2.97;1.33;;;7.40;99.90;;;;;;4998764;28;20467;-64
2023/03/15 11:55:53;;;;;;;2.57;1.33;;;7.50;99.90;;;;;;4998419;28;20506;-59
2023/03/15 11:58:33;;;;;;;1.30;1.10;;;7.60;99.90;;;;;;4998421;28;20458;-63
2023/03/15 12:01:04;;;;;;;8.47;1.50;;;7.80;99.90;;;;;;4998247;28;20896;-62
2023/03/15 12:03:40;;;;;;;3.43;1.33;;;7.90;99.90;;;;;;4998469;28;20461;-62
2023/03/15 12:06:32;;;;;;;1.40;1.00;;;8.20;99.90;;;;;;4998358;28;20498;-62
2023/03/15 12:09:00;;;;;;;2.17;1.40;;;8.20;99.90;;;;;;4998002;28;20760;-63
2023/03/15 12:11:42;;;;;;;4.17;1.50;;;8.30;99.90;;;;;;4998405;28;20434;-63
2023/03/15 12:14:30;;;;;;;2.00;1.40;;;8.40;99.90;;;;;;4998086;28;20454;-59
2023/03/15 12:17:48;;;;;;;4.50;2.07;;;8.50;99.90;;;;;;4998869;28;20462;-64
2023/03/15 12:20:27;;;;;;;1.60;0.90;;;8.60;99.90;;;;;;4938971;29;20484;-58
2023/03/15 12:23:19;;;;;;;3.87;1.57;;;8.50;99.90;;;;;;4958628;29;20488;-60
2023/03/15 12:25:53;;;;;;;4.17;1.53;;;8.30;99.90;;;;;;4985859;28;20439;-65
2023/03/15 12:28:27;;;;;;;2.70;1.10;;;8.40;99.90;;;;;;4997586;28;20430;-61
2023/03/15 12:30:57;;;;;;;8.87;1.93;;;8.50;99.90;;;;;;4998160;28;20471;-60
2023/03/15 12:33:26;;;;;;;2.83;1.60;;;8.40;99.90;;;;;;4998369;28;20459;-57
2023/03/15 12:36:02;;;;;;;3.37;1.20;;;8.10;99.90;;;;;;4997123;28;20502;-63
2023/03/15 12:38:36;;;;;;;6.63;3.83;;;8.00;99.90;;;;;;4997834;28;20461;-65
2023/03/15 12:41:07;;;;;;;5.67;1.60;;;7.90;99.90;;;;;;4997484;28;20476;-64
2023/03/15 12:43:44;;;;;;;1.63;1.10;;;8.00;99.90;;;;;;4997243;28;20439;-63
2023/03/15 12:46:44;;;;;;;2.93;1.80;;;8.00;99.90;;;;;;4997696;28;20462;-60
2023/03/15 12:49:13;;;;;;;4.37;2.40;;;8.00;99.90;;;;;;4998275;28;20462;-64
2023/03/15 12:52:00;;;;;;;2.67;1.30;;;8.20;99.90;;;;;;4998341;28;20427;-60
2023/03/15 12:54:34;;;;;;;1.50;1.30;;;8.30;99.90;;;;;;4998576;28;20423;-60
2023/03/15 12:57:03;;;;;;;1.30;1.00;;;8.40;99.90;;;;;;4998280;28;20533;-58
2023/03/15 12:59:40;;;;;;;5.13;1.10;;;8.40;99.90;;;;;;4998837;28;20435;-59
2023/03/15 13:02:25;;;;;;;2.03;1.23;;;8.20;99.90;;;;;;4998567;28;20487;-64
2023/03/15 13:05:12;;;;;;;7.23;1.70;;;8.00;99.90;;;;;;4997325;28;20471;-56
2023/03/15 13:07:54;;;;;;;2.87;1.20;;;7.90;99.90;;;;;;4998169;28;20478;-61
2023/03/15 13:10:37;;;;;;;1.57;0.93;;;7.80;99.90;;;;;;4997862;28;20431;-60